• Join FlightAware (Why Join?)
  • Login
  • US Flag 
02:17AM EDT


 

Airport Tracker/Info


-or-


 

Live Flight TrackerFlight Track Log ✈ EJA929 ✈ 14-Oct-2013 ✈ KAPC - KCMH

Flight Track Log - Related Links

Times and Time Zones

All times are in EDT time to prevent confusion due to time zone crossing. See the EJA929 flight status page for this flight to view local times or setup timezone preferences in your user account.

Time Position Orientation Groundspeed Altitude Reporting Facility
EDT Latitude Longitude Course Direction KTS MPH feet Rate Location/Type
12:37PM 38.1886 -122.2956 90° East 164 189 1,200  Level Oakland Center
12:38PM 38.1861 -122.3500 267° West 204 235 4,700 3,420 Climbing Oakland Center
12:39PM 38.2242 -122.4017 313° West 201 231 8,300 3,360 Climbing Oakland Center
12:40PM 38.2936 -122.4050 358° North 250 288 11,600 2,400 Climbing Oakland Center
12:41PM 38.3797 -122.3978 North 315 362 13,300 1,560 Climbing Oakland Center
12:42PM 38.4485 -121.2060 90° East  Level Estimated
12:42PM 38.4478 -122.3122 45° Northeast 360 414 14,800  Level Oakland Center
12:43PM 38.4603 -122.1775 83° East 379 436 16,100 1,260 Climbing Oakland Center
12:44PM 38.4672 -122.0111 87° East 390 449 17,500 1,200 Climbing Oakland Center
12:45PM 38.4725 -121.8681 87° East 401 461 18,600 1,080 Climbing Oakland Center
12:46PM 38.4778 -121.7344 87° East 408 470 19,800 1,080 Climbing Oakland Center
12:47PM 38.4839 -121.5867 87° East 417 480 20,900 1,200 Climbing Oakland Center
12:48PM 38.4903 -121.4217 87° East 428 493 22,300 1,320 Climbing Oakland Center
12:49PM 38.4939 -121.2669 88° East 435 501 23,700 1,380 Climbing Oakland Center
12:50PM 38.5011 -121.1008 87° East 447 514 25,200 1,320 Climbing Oakland Center
12:51PM 38.5064 -120.9417 88° East 450 518 26,500 1,200 Climbing Oakland Center
12:52PM 38.5119 -120.7767 87° East 462 532 27,700 1,260 Climbing Oakland Center
12:53PM 38.5169 -120.6081 88° East 473 544 29,100 1,440 Climbing Oakland Center
12:54PM 38.5214 -120.4025 88° East 483 556 30,700 1,620 Climbing Oakland Center
12:55PM 38.5261 -120.2283 88° East 491 565 32,500 1,680 Climbing Oakland Center
12:56PM 38.5314 -120.0567 88° East 486 559 34,200 1,680 Climbing Oakland Center
12:57PM 38.5342 -119.8842 89° East 487 560 36,000 1,740 Climbing Oakland Center
12:58PM 38.5394 -119.6933 88° East 489 563 37,800 1,560 Climbing Oakland Center
12:59PM 38.5436 -119.5217 88° East 487 560 39,200 1,140 Climbing Oakland Center
01:00PM 38.5478 -119.3478 88° East 491 565 40,200 840 Climbing Oakland Center
01:01PM 38.5503 -119.1756 89° East 489 563 41,000 360 Climbing Oakland Center
01:02PM 38.5544 -118.9944 88° East 509 586 41,000  Level Oakland Center
01:04PM 38.5569 -118.8075 89° East 523 602 41,000  Level Oakland Center
01:05PM 38.5600 -118.6150 89° East 540 621 41,000  Level Oakland Center
01:06PM 38.5625 -118.3833 89° East 547 629 41,000  Level Oakland Center
01:07PM 38.5644 -118.1864 89° East 554 638 41,000  Level Oakland Center
01:08PM 38.5675 -118.0139 89° East 552 635 41,000  Level Oakland Center
01:09PM 38.5858 -117.8169 83° East 555 639 41,000  Level Oakland Center
01:09PM 38.6025 -117.6208 84° East 555 639 41,000  Level Salt Lake Center
01:11PM 38.6203 -117.4231 83° East 556 640 41,000  Level Salt Lake Center
01:12PM 38.6367 -117.2231 84° East 558 642 41,000  Level Salt Lake Center
01:13PM 38.6542 -117.0228 84° East 561 646 41,000  Level Salt Lake Center
01:14PM 38.6708 -116.8214 84° East 565 650 41,000  Level Salt Lake Center
01:15PM 38.6875 -116.6197 84° East 567 652 41,000  Level Salt Lake Center
01:16PM 38.7039 -116.4192 84° East 564 649 41,000  Level Salt Lake Center
01:17PM 38.7197 -116.2197 84° East 563 648 41,000  Level Salt Lake Center
01:18PM 38.7350 -116.0206 84° East 560 644 41,000  Level Salt Lake Center
01:19PM 38.7522 -115.7828 85° East 558 642 41,000  Level Salt Lake Center
01:20PM 38.7672 -115.5864 84° East 555 639 41,000  Level Salt Lake Center
01:21PM 38.7800 -115.3914 85° East 549 632 41,000  Level Salt Lake Center
01:22PM 38.7942 -115.2097 84° East 554 638 41,000  Level Salt Lake Center
01:23PM 38.8086 -115.0144 85° East 554 638 41,000  Level Salt Lake Center
01:24PM 38.8247 -114.7794 85° East 552 635 41,000  Level Salt Lake Center
01:25PM 38.8361 -114.5831 86° East 553 636 41,000  Level Salt Lake Center
01:26PM 38.8492 -114.3856 85° East 555 639 41,000  Level Salt Lake Center
01:27PM 38.8611 -114.1858 86° East 560 644 41,000  Level Salt Lake Center
01:28PM 38.8719 -113.9878 86° East 557 641 41,000  Level Salt Lake Center
01:29PM 38.8842 -113.7900 85° East 557 641 41,000  Level Salt Lake Center
01:30PM 38.8947 -113.5922 86° East 555 639 41,000  Level Salt Lake Center
01:31PM 38.9078 -113.3533 86° East 558 642 41,000  Level Salt Lake Center
01:32PM 38.9181 -113.1572 86° East 553 636 41,000  Level Salt Lake Center
01:33PM 38.9278 -112.9539 86° East 564 649 41,000  Level Salt Lake Center
01:34PM 38.9372 -112.7547 86° East 561 646 41,000  Level Salt Lake Center
01:35PM 38.9469 -112.5539 86° East 561 646 41,000  Level Salt Lake Center
01:36PM 38.9550 -112.3525 87° East 563 648 41,000  Level Salt Lake Center
01:37PM 38.9653 -112.1514 86° East 565 650 41,000  Level Salt Lake Center
01:38PM 38.9758 -111.9086 87° East 567 652 41,000  Level Salt Lake Center
01:39PM 38.9833 -111.7067 87° East 567 652 41,000  Level Salt Lake Center
01:40PM 38.9911 -111.5044 87° East 566 651 41,000  Level Salt Lake Center
01:41PM 38.9989 -111.3022 87° East 566 651 41,000  Level Salt Lake Center
01:42PM 39.0053 -111.0917 88° East 568 654 41,000  Level Salt Lake Center
01:43PM 39.0111 -110.8967 88° East 570 656 41,000  Level Salt Lake Center
01:44PM 39.0175 -110.6703 88° East 568 654 41,000  Level Salt Lake Center
01:46PM 39.0256 -110.4769 87° East 568 654 41,000  Level Salt Lake Center
01:47PM 39.0314 -110.2500 88° East 570 656 41,000  Level Salt Lake Center
01:48PM 39.0358 -110.0539 88° East 572 658 41,000  Level Salt Lake Center
01:49PM 39.0411 -109.8261 88° East 573 659 41,000  Level Salt Lake Center
01:50PM 39.0456 -109.6325 88° East 570 656 41,000  Level Salt Lake Center
01:51PM 39.0492 -109.4044 89° East 572 658 41,000  Level Salt Lake Center
01:52PM 39.0531 -109.2086 88° East 574 661 41,000  Level Salt Lake Center
01:53PM 39.0558 -108.9425 89° East 576 663 41,000  Level Denver Center
01:54PM 39.0739 -108.7161 84° East 575 662 41,000  Level Denver Center
01:55PM 39.1147 -108.5281 74° East 573 659 41,000  Level Denver Center
01:56PM 39.1600 -108.3078 75° East 573 659 41,000  Level Denver Center
01:57PM 39.1981 -108.1194 75° East 572 658 41,000  Level Denver Center
01:58PM 39.2428 -107.8992 75° East 572 658 41,000  Level Denver Center
01:59PM 39.2806 -107.7097 75° East 572 658 41,000  Level Denver Center
02:00PM 39.3236 -107.4900 76° East 568 654 41,000  Level Denver Center
02:01PM 39.3608 -107.3022 76° East 566 651 41,000  Level Denver Center
02:02PM 39.4033 -107.0828 76° East 563 648 41,000  Level Denver Center
02:03PM 39.4367 -106.8961 77° East 558 642 41,000  Level Denver Center
02:04PM 39.4661 -106.6717 80° East 565 650 41,000  Level Denver Center
02:05PM 39.4883 -106.4831 81° East 566 651 41,000  Level Denver Center
02:06PM 39.5119 -106.2817 81° East 566 651 41,000  Level Denver Center
02:07PM 39.5358 -106.0731 81° East 563 648 41,000  Level Denver Center
02:09PM 39.5589 -105.8711 82° East 570 656 41,000  Level Denver Center
02:10PM 39.5861 -105.6275 82° East 569 655 41,000  Level Denver Center
02:11PM 39.6067 -105.4261 82° East 564 649 41,000  Level Denver Center
02:12PM 39.6281 -105.2242 82° East 565 650 41,000  Level Denver Center
02:13PM 39.6486 -105.0231 82° East 562 647 41,000  Level Denver Center
02:14PM 39.6678 -104.8172 83° East 561 646 41,000  Level Denver Center
02:15PM 39.6925 -104.6014 81° East 571 657 41,000  Level Denver Center
02:16PM 39.7078 -104.3922 85° East 564 649 41,000  Level Denver Center
02:17PM 39.7247 -104.1808 84° East 581 669 41,000  Level Denver Center
02:18PM 39.7403 -103.9744 84° East 576 663 41,000  Level Denver Center
02:19PM 39.7617 -103.7272 84° East 559 643 41,000  Level Denver Center
02:20PM 39.7761 -103.5183 85° East 573 659 41,000  Level Denver Center
02:21PM 39.7933 -103.3103 84° East 580 667 41,000  Level Denver Center
02:22PM 39.8089 -103.1019 84° East 581 669 41,000  Level Denver Center
02:23PM 39.8244 -102.8925 84° East 584 672 41,000  Level Denver Center
02:24PM 39.8403 -102.6494 85° East 582 670 41,000  Level Denver Center
02:25PM 39.8544 -102.4494 85° East 582 670 41,000  Level Denver Center
02:26PM 39.8694 -102.2161 85° East 581 669 41,000  Level Denver Center
02:27PM 39.8825 -102.0161 85° East 581 669 41,000  Level Denver Center
02:28PM 39.8964 -101.7819 86° East 582 670 41,100 300 Climbing Denver Center
02:29PM 39.9086 -101.5817 85° East 582 670 41,700 600 Climbing Denver Center
02:30PM 39.9222 -101.3533 85° East 572 658 42,400 600 Climbing Denver Center
02:31PM 39.9339 -101.1578 85° East 570 656 43,000 240 Climbing Denver Center
02:32PM 39.9461 -100.9322 86° East 564 649 43,000  Level Denver Center
02:33PM 39.9564 -100.7353 86° East 568 654 43,000  Level Denver Center
02:34PM 39.9658 -100.5347 86° East 577 664 43,000  Level Denver Center
02:35PM 39.9778 -100.3031 86° East 577 664 43,000  Level Denver Center
02:36PM 39.9881 -100.0781 87° East 582 670 43,000  Level Denver Center
02:37PM 39.9972 -99.8717 87° East 574 661 43,000  Level Denver Center
02:38PM 40.0064 -99.6725 86° East 558 642 43,000  Level Denver Center
02:40PM 40.0153 -99.4706 87° East 559 643 43,000  Level Denver Center
02:41PM 40.0233 -99.2644 87° East 568 654 43,000  Level Denver Center
02:42PM 40.0308 -99.0594 87° East 570 656 43,000  Level Minneapolis Center
02:43PM 40.0406 -98.8083 87° East 577 664 43,000  Level Minneapolis Center
02:44PM 40.0475 -98.5989 87° East 581 669 43,000  Level Minneapolis Center
02:45PM 40.0539 -98.3894 88° East 580 667 43,000  Level Minneapolis Center
02:46PM 40.0611 -98.1797 87° East 581 669 43,000  Level Minneapolis Center
02:47PM 40.0661 -97.9700 88° East 581 669 43,000  Level Minneapolis Center
02:48PM 40.0725 -97.7594 88° East 582 670 43,000  Level Minneapolis Center
02:49PM 40.0786 -97.5072 88° East 582 670 43,000  Level Minneapolis Center
02:50PM 40.0836 -97.3197 88° East 582 670 43,000  Level Minneapolis Center
02:51PM 40.0872 -97.1103 89° East 581 669 43,000  Level Minneapolis Center
02:52PM 40.0925 -96.8597 88° East 578 665 43,000  Level Minneapolis Center
02:53PM 40.0956 -96.6500 89° East 580 667 43,000  Level Minneapolis Center
02:54PM 40.1000 -96.4375 88° East 585 673 43,000  Level Minneapolis Center
02:55PM 40.1025 -96.2272 89° East 583 671 43,000  Level Minneapolis Center
02:56PM 40.1056 -96.0139 89° East 588 677 43,000  Level Minneapolis Center
02:57PM 40.1069 -95.7981 89° East 593 682 43,000  Level Minneapolis Center
02:58PM 40.1106 -95.5428 89° East 593 682 43,000  Level Minneapolis Center
02:59PM 40.1111 -95.3289 90° East 592 681 43,000  Level Minneapolis Center
03:00PM 40.1122 -95.1125 90° East 594 684 43,000  Level Minneapolis Center
03:01PM 40.1125 -94.8981 90° East 594 684 43,000  Level Minneapolis Center
03:02PM 40.1131 -94.6814 90° East 595 685 43,000  Level Minneapolis Center
03:03PM 40.1139 -94.4656 90° East 601 692 43,000  Level Minneapolis Center
03:04PM 40.1133 -94.2067 90° East 601 692 43,000  Level Minneapolis Center
03:05PM 40.1117 -93.9919 91° East 598 688 43,000  Level Minneapolis Center
03:06PM 40.1106 -93.7764 90° East 600 690 43,000  Level Minneapolis Center
03:07PM 40.1083 -93.5603 91° East 600 690 43,000  Level Minneapolis Center
03:09PM 40.1044 -93.2561 91° East 603 694 43,000  Level Kansas City Center
03:10PM 40.0997 -93.0247 91° East 601 692 43,000  Level Kansas City Center
03:11PM 40.0961 -92.8142 91° East 603 694 43,000  Level Kansas City Center
03:12PM 40.0911 -92.5683 91° East 606 697 43,000  Level Kansas City Center
03:13PM 40.0875 -92.3583 91° East 604 695 43,000  Level Kansas City Center
03:14PM 40.0853 -92.1400 91° East 606 697 43,000  Level Kansas City Center
03:15PM 40.0794 -91.9236 92° East 605 696 43,000  Level Kansas City Center
03:16PM 40.0733 -91.7069 92° East 605 696 43,000  Level Kansas City Center
03:17PM 40.0731 -91.4483 90° East 601 692 43,000  Level Kansas City Center
03:18PM 40.0864 -91.2314 85° East 605 696 43,000  Level Kansas City Center
03:19PM 40.0994 -91.0158 85° East 603 694 43,000  Level Kansas City Center
03:20PM 40.1119 -90.7856 86° East 601 692 43,000  Level Kansas City Center
03:21PM 40.1242 -90.5706 86° East 598 688 43,000  Level Kansas City Center
03:22PM 40.1364 -90.3558 86° East 596 686 43,000  Level Kansas City Center
03:23PM 40.1486 -90.0956 86° East 600 690 43,000  Level Kansas City Center
03:24PM 40.1594 -89.8803 86° East 601 692 43,000  Level Kansas City Center
03:25PM 40.1692 -89.6669 87° East 597 687 43,000 -600 Level Kansas City Center
03:26PM 40.1789 -89.4564 86° East 591 680 41,800 -1,500 Descending Kansas City Center
03:27PM 40.1875 -89.2467 87° East 585 673 39,900 -2,040 Descending Kansas City Center
03:28PM 40.1989 -88.9850 87° East 599 689 37,700 -1,440 Descending Kansas City Center
03:29PM 40.2067 -88.7600 87° East 615 708 37,000 -360 Descending Kansas City Center
03:30PM 40.2150 -88.5439 87° East 606 697 37,000 -780 Level Kansas City Center
03:31PM 40.2253 -88.3317 86° East 591 680 35,400 -1,020 Descending Kansas City Center
03:32PM 40.2306 -88.1250 88° East 579 666 35,000 -240 Descending Kansas City Center
03:33PM 40.2378 -87.9339 87° East 544 626 35,000  Level Kansas City Center
03:34PM 40.2397 -87.7850 89° East 518 596 35,000  Level Indianapolis Center
03:35PM 40.2436 -87.6942 87° East 510 587 35,000  Level Chicago Center
03:36PM 40.2497 -87.4797 88° East 500 575 35,000 -60 Level Chicago Center
03:37PM 40.2522 -87.3142 89° East 498 573 34,900 -720 Descending Chicago Center
03:38PM 40.2581 -87.1219 88° East 524 603 33,600 -960 Descending Chicago Center
03:39PM 40.2625 -86.9172 88° East 557 641 33,000 -300 Descending Chicago Center
03:40PM 40.2672 -86.7094 88° East 567 652 33,000  Level Chicago Center
03:41PM 40.2719 -86.4608 88° East 568 654 33,000  Level Chicago Center
03:42PM 40.2750 -86.2539 89° East 567 652 33,000 -60 Level Chicago Center
03:43PM 40.2764 -86.0444 89° East 572 658 32,900 -1,080 Descending Chicago Center
03:44PM 40.2794 -85.8386 89° East 569 655 30,800 -2,280 Descending Chicago Center
03:45PM 40.2803 -85.7197 89° East 556 640 29,400 -2,160 Descending Indianapolis Center
03:46PM 40.2850 -85.5203 88° East 550 633 27,500 -1,200 Descending Indianapolis Center
03:47PM 40.2878 -85.3253 89° East 539 620 27,000 -300 Descending Indianapolis Center
03:48PM 40.2886 -85.1308 90° East 535 616 27,000  Level Indianapolis Center
03:49PM 40.2883 -84.9350 90° East 539 620 27,000 -300 Level Indianapolis Center
03:50PM 40.2903 -84.7369 89° East 539 620 26,500 -780 Descending Indianapolis Center
03:51PM 40.2889 -84.5442 90° East 530 610 25,400 -1,260 Descending Indianapolis Center
03:52PM 40.2883 -84.3214 90° East 510 587 24,000 -1,860 Descending Indianapolis Center
03:53PM 40.2892 -84.1428 90° East 492 566 21,600 -2,400 Descending Indianapolis Center
03:54PM 40.3017 -83.9711 84° East 474 545 19,100 -2,340 Descending Indianapolis Center
03:55PM 40.3344 -83.8108 75° East 455 524 16,800 -2,460 Descending Indianapolis Center
03:55PM 40.3481 -83.7347 77° East 448 516 15,700 -2,280 Descending Indianapolis Center
03:56PM 40.3653 -83.6536 74° East 445 512 14,500 -2,760 Descending Indianapolis Center
03:56PM 40.3850 -83.5542 75° East 395 455 12,400 -2,940 Descending Indianapolis Center
03:57PM 40.3925 -83.5103 77° East 411 473 11,500 -1,380 Descending Indianapolis Center
03:57PM 40.3742 -83.4314 107° East 346 398 11,000 -720 Descending Indianapolis Center
03:58PM 40.3525 -83.4119 146° Southeast 340 391 10,800 -1,320 Descending Indianapolis Center
03:59PM 40.2856 -83.3697 154° Southeast 282 325 9,400 -1,860 Descending Indianapolis Center
03:59PM 40.2650 -83.3556 152° Southeast 293 337 8,900 -1,800 Descending Indianapolis Center
04:00PM 40.2122 -83.3247 156° South 283 326 7,600 -1,800 Descending Indianapolis Center
04:00PM 40.1944 -83.3108 149° Southeast 284 327 7,100 -1,680 Descending Indianapolis Center
04:01PM 40.1531 -83.2847 154° Southeast 271 312 6,100 -1,380 Descending Indianapolis Center
04:01PM 40.1272 -83.2658 151° Southeast 276 318 5,700 -1,440 Descending Indianapolis Center
04:02PM 40.0803 -83.2342 153° Southeast 262 302 4,500 -1,560 Descending Indianapolis Center
04:02PM 40.0628 -83.2206 149° Southeast 269 310 4,100 -540 Descending Indianapolis Center
04:03PM 40.0344 -83.1639 123° Southeast 232 267 4,000 -120 Descending Indianapolis Center
04:03PM 40.0269 -83.1478 121° Southeast 247 284 4,000 -300 Level Indianapolis Center
04:04PM 40.0136 -83.0975 109° East 195 224 3,700 -600 Descending Indianapolis Center
04:04PM 40.0125 -83.0792 95° East 219 252 3,400 -1,020 Descending Indianapolis Center
04:05PM 40.0092 -83.0339 95° East 187 215 2,800 -1,200 Descending Indianapolis Center
04:05PM 40.0075 -82.9989 94° East 196 226 2,200 -900 Descending Indianapolis Center
04:06PM 40.0067 -82.9736 92° East 170 196 1,900 -720 Descending Indianapolis Center
04:06PM 40.0047 -82.9444 95° East 173 199 1,500 -720 Descending Indianapolis Center
04:07PM 40.0047 -82.9267 90° East 124 143 1,200 -300 Descending Indianapolis Center
04:07PM 40.0028 -82.9011 96° East 160 184 1,200  Level Indianapolis Center
04:09PM 39.9969 -82.8922 123° Southeast  Level Estimated